Time;durP1;ratioP1;P1;durP2;ratioP2;P2;SDS_P1;SDS_P2;PMS_P1;PMS_P2;Temp;Humidity;BMP_temperature;BMP_pressure;BME280_temperature;BME280_humidity;BME280_pressure;Samples;Min_cycle;Max_cycle;Signal;HPM_P1;HPM_P2
2022/04/25 00:01:14;;;;;;;13.65;8.43;;;11.30;99.90;;;;;;5096131;28;20464;-88
2022/04/25 00:03:40;;;;;;;12.70;8.98;;;11.40;99.90;;;;;;5095509;28;20085;-90
2022/04/25 00:06:05;;;;;;;14.15;8.52;;;11.40;99.90;;;;;;5096697;28;20448;-90
2022/04/25 00:08:31;;;;;;;14.27;9.60;;;11.40;99.90;;;;;;5096402;28;20032;-89
2022/04/25 00:10:57;;;;;;;13.15;8.80;;;11.40;99.90;;;;;;5096486;28;20016;-90
2022/04/25 00:13:23;;;;;;;16.30;9.05;;;11.30;99.90;;;;;;5094784;28;20084;-91
2022/04/25 00:15:49;;;;;;;15.30;9.27;;;11.30;99.90;;;;;;5095658;28;20020;-90
2022/04/25 00:18:15;;;;;;;15.48;9.90;;;11.30;99.90;;;;;;5095042;28;20063;-91
2022/04/25 00:20:40;;;;;;;16.17;9.63;;;11.30;99.90;;;;;;5097143;28;20031;-90
2022/04/25 00:23:06;;;;;;;14.98;9.75;;;11.30;99.90;;;;;;5096005;28;20024;-91
2022/04/25 00:25:33;;;;;;;14.30;9.75;;;11.20;99.90;;;;;;5095648;28;20141;-91
2022/04/25 00:28:00;;;;;;;14.27;8.85;;;11.30;99.90;;;;;;5095035;28;20024;-91
2022/04/25 00:30:26;;;;;;;16.30;10.32;;;11.30;99.90;;;;;;5094770;28;20049;-89
2022/04/25 00:32:52;;;;;;;16.25;9.82;;;11.30;99.90;;;;;;5096438;28;20020;-90
2022/04/25 00:35:17;;;;;;;13.73;9.30;;;11.30;99.90;;;;;;5094300;28;20023;-92
2022/04/25 00:37:43;;;;;;;16.08;10.35;;;11.20;99.90;;;;;;5095790;28;20020;-91
2022/04/25 00:40:09;;;;;;;16.40;10.07;;;11.20;99.90;;;;;;5095526;28;20077;-88
2022/04/25 00:42:36;;;;;;;18.10;10.18;;;11.10;99.90;;;;;;5094881;28;20038;-86
2022/04/25 00:45:02;;;;;;;16.38;10.68;;;11.10;99.90;;;;;;5094431;28;20024;-86
2022/04/25 00:47:27;;;;;;;16.33;9.90;;;11.10;99.90;;;;;;5095221;28;20028;-86
2022/04/25 00:49:53;;;;;;;15.73;10.13;;;11.00;99.90;;;;;;5094454;28;20069;-86
2022/04/25 00:52:19;;;;;;;17.05;10.30;;;11.00;99.90;;;;;;5095154;28;20059;-86
2022/04/25 00:54:45;;;;;;;18.63;10.45;;;10.90;99.90;;;;;;5094632;28;20020;-87
2022/04/25 00:57:11;;;;;;;17.17;10.00;;;11.00;99.90;;;;;;5094605;28;20027;-87
2022/04/25 00:59:37;;;;;;;20.65;11.98;;;10.90;99.90;;;;;;5094204;28;20062;-86
2022/04/25 01:02:04;;;;;;;16.05;10.70;;;10.90;99.90;;;;;;5095373;28;20027;-87
2022/04/25 01:04:30;;;;;;;17.90;10.80;;;10.80;99.90;;;;;;5095206;28;20854;-86
2022/04/25 01:06:56;;;;;;;16.88;10.63;;;10.80;99.90;;;;;;5094285;28;20034;-86
2022/04/25 01:09:24;;;;;;;18.70;10.52;;;10.80;99.90;;;;;;5093781;28;20048;-85
2022/04/25 01:11:50;;;;;;;20.50;11.50;;;10.70;99.90;;;;;;5094028;28;20506;-86
2022/04/25 01:14:21;;;;;;;18.30;10.73;;;10.60;99.90;;;;;;5093654;28;20024;-89
2022/04/25 01:16:50;;;;;;;17.03;10.47;;;10.60;99.90;;;;;;5094063;28;20488;-92
2022/04/25 01:19:16;;;;;;;21.17;11.80;;;10.60;99.90;;;;;;5094495;28;20065;-91
2022/04/25 01:21:56;;;;;;;19.10;11.32;;;10.60;99.90;;;;;;5093964;28;20071;-91
2022/04/25 01:27:17;;;;;;;18.33;11.30;;;10.60;99.90;;;;;;5095244;28;20078;-91
2022/04/25 01:29:54;;;;;;;18.02;10.95;;;10.60;99.90;;;;;;5093902;28;20031;-91
2022/04/25 01:32:24;;;;;;;19.60;11.65;;;10.60;99.90;;;;;;5093351;28;20023;-91
2022/04/25 01:34:50;;;;;;;17.73;11.35;;;10.60;99.90;;;;;;5094684;28;20064;-92
2022/04/25 01:37:20;;;;;;;19.63;11.93;;;10.50;99.90;;;;;;5093323;28;20028;-90
2022/04/25 01:39:48;;;;;;;18.85;11.77;;;10.50;99.90;;;;;;5093649;28;20027;-90
2022/04/25 01:42:15;;;;;;;19.05;11.63;;;10.40;99.90;;;;;;5092975;28;20069;-89
2022/04/25 01:44:41;;;;;;;19.58;12.25;;;10.50;99.90;;;;;;5094690;28;20453;-89
2022/04/25 01:47:07;;;;;;;18.38;11.20;;;10.40;99.90;;;;;;5094503;28;20421;-91
2022/04/25 01:49:34;;;;;;;18.42;11.60;;;10.40;99.90;;;;;;5094270;28;20024;-91
2022/04/25 01:52:26;;;;;;;22.67;12.05;;;10.40;99.90;;;;;;5094419;28;20024;-89
2022/04/25 01:54:52;;;;;;;19.05;11.52;;;10.30;99.90;;;;;;5094572;28;20021;-89
2022/04/25 01:57:18;;;;;;;21.70;12.23;;;10.40;99.90;;;;;;5092661;28;20062;-89
2022/04/25 01:59:45;;;;;;;19.73;11.85;;;10.40;99.90;;;;;;5093269;28;20381;-89
2022/04/25 02:02:14;;;;;;;18.65;11.60;;;10.40;99.90;;;;;;5093285;28;20027;-89
2022/04/25 02:04:40;;;;;;;18.65;11.55;;;10.40;99.90;;;;;;5093312;28;20024;-89
2022/04/25 02:07:07;;;;;;;18.60;11.35;;;10.50;99.90;;;;;;5092844;28;20031;-89
2022/04/25 02:09:34;;;;;;;18.77;11.50;;;10.50;99.90;;;;;;5092763;28;20020;-89
2022/04/25 02:12:00;;;;;;;18.10;11.55;;;10.50;99.90;;;;;;5093262;28;20016;-89
2022/04/25 02:14:29;;;;;;;20.10;11.43;;;10.50;99.90;;;;;;5092751;28;20020;-89
2022/04/25 02:16:56;;;;;;;21.05;12.05;;;10.50;99.90;;;;;;5092879;28;20035;-89
2022/04/25 02:19:22;;;;;;;18.65;11.05;;;10.50;99.90;;;;;;5093586;28;20016;-89
2022/04/25 02:21:48;;;;;;;19.90;12.32;;;10.40;99.90;;;;;;5094101;28;20476;-88
2022/04/25 02:24:13;;;;;;;18.60;11.55;;;10.40;99.90;;;;;;5093462;28;20119;-89
2022/04/25 02:26:39;;;;;;;18.65;11.52;;;10.30;99.90;;;;;;5094251;28;20498;-88
2022/04/25 02:29:05;;;;;;;19.45;11.45;;;10.30;99.90;;;;;;5093146;28;20031;-88
2022/04/25 02:31:31;;;;;;;18.33;11.18;;;10.30;99.90;;;;;;5092642;28;20043;-86
2022/04/25 02:33:56;;;;;;;19.08;11.88;;;10.20;99.90;;;;;;5094243;28;20077;-87
2022/04/25 02:36:23;;;;;;;20.52;11.75;;;10.10;99.90;;;;;;5093074;28;20480;-87
2022/04/25 02:38:50;;;;;;;18.60;10.68;;;10.20;99.90;;;;;;5094791;28;20052;-86
2022/04/25 02:41:16;;;;;;;20.52;10.80;;;10.10;99.90;;;;;;5092639;28;20028;-89
2022/04/25 02:43:45;;;;;;;16.70;10.82;;;10.10;99.90;;;;;;5093847;28;20073;-87
2022/04/25 02:46:12;;;;;;;19.77;11.10;;;10.10;99.90;;;;;;5092934;28;20023;-86
2022/04/25 02:48:40;;;;;;;19.00;11.30;;;10.10;99.90;;;;;;5093288;28;20062;-85
2022/04/25 02:51:07;;;;;;;20.13;12.00;;;10.20;99.90;;;;;;5093990;28;20099;-85
2022/04/25 02:53:33;;;;;;;18.40;11.82;;;10.10;99.90;;;;;;5092287;28;20024;-85
2022/04/25 02:55:59;;;;;;;17.30;10.57;;;10.10;99.90;;;;;;5092897;28;20020;-85
2022/04/25 02:58:26;;;;;;;18.25;11.45;;;10.20;99.90;;;;;;5093093;28;20098;-91
2022/04/25 03:00:52;;;;;;;21.45;11.75;;;10.20;99.90;;;;;;5092806;28;20028;-91
2022/04/25 03:03:20;;;;;;;23.05;12.60;;;10.10;99.90;;;;;;5092535;28;20448;-91
2022/04/25 03:05:50;;;;;;;21.70;12.20;;;10.10;99.90;;;;;;5093007;28;20016;-91
2022/04/25 03:08:21;;;;;;;25.35;13.30;;;10.00;99.90;;;;;;5093281;28;20028;-91
2022/04/25 03:10:48;;;;;;;21.02;12.20;;;10.00;99.90;;;;;;5092630;28;20024;-91
2022/04/25 03:13:16;;;;;;;22.92;13.55;;;10.00;99.90;;;;;;5093744;28;20017;-89
2022/04/25 03:15:43;;;;;;;22.23;13.05;;;9.90;99.90;;;;;;5093205;28;20099;-88
2022/04/25 03:18:10;;;;;;;21.75;12.98;;;9.90;99.90;;;;;;5092414;28;20484;-87
2022/04/25 03:20:37;;;;;;;21.50;12.75;;;9.90;99.90;;;;;;5094965;28;20020;-87
2022/04/25 03:23:05;;;;;;;24.02;13.57;;;9.90;99.90;;;;;;5096333;28;20016;-88
2022/04/25 03:25:31;;;;;;;21.65;12.73;;;10.00;99.90;;;;;;5095840;28;20032;-88
2022/04/25 03:27:58;;;;;;;24.05;13.77;;;10.00;99.90;;;;;;5096158;28;20027;-88
2022/04/25 03:30:24;;;;;;;28.45;12.60;;;10.00;99.90;;;;;;5095191;28;20039;-88
2022/04/25 03:32:50;;;;;;;20.83;12.77;;;10.00;99.90;;;;;;5096446;28;20012;-88
2022/04/25 03:35:17;;;;;;;25.83;14.43;;;10.00;99.90;;;;;;5095500;28;20036;-88
2022/04/25 03:37:44;;;;;;;22.17;13.43;;;10.00;99.90;;;;;;5095986;28;20039;-88
2022/04/25 03:40:10;;;;;;;22.15;13.38;;;10.10;99.90;;;;;;5095866;28;20024;-88
2022/04/25 03:42:41;;;;;;;22.15;13.35;;;10.20;99.90;;;;;;5096490;28;20149;-88
2022/04/25 03:45:11;;;;;;;22.15;13.10;;;10.20;99.90;;;;;;5096024;28;20048;-88
2022/04/25 03:47:40;;;;;;;25.50;14.38;;;10.10;99.90;;;;;;5095435;28;20115;-89
2022/04/25 03:50:08;;;;;;;25.30;13.65;;;10.10;99.90;;;;;;5096142;28;20031;-90
2022/04/25 03:52:38;;;;;;;23.92;14.68;;;10.00;99.90;;;;;;5095429;28;20028;-90
2022/04/25 03:57:53;;;;;;;24.48;13.38;;;10.00;99.90;;;;;;5096432;28;20055;-90
2022/04/25 04:00:19;;;;;;;23.90;14.05;;;10.00;99.90;;;;;;5096772;28;20028;-89
2022/04/25 04:02:45;;;;;;;21.52;12.85;;;10.00;99.90;;;;;;5095516;28;20028;-89
2022/04/25 04:05:11;;;;;;;21.00;12.98;;;10.00;99.90;;;;;;5095330;28;20024;-89
2022/04/25 04:07:37;;;;;;;23.55;13.20;;;10.00;99.90;;;;;;5095001;28;20463;-90
2022/04/25 04:10:03;;;;;;;23.70;13.73;;;10.00;99.90;;;;;;5095581;28;20020;-88
2022/04/25 04:12:36;;;;;;;25.30;14.38;;;10.00;99.90;;;;;;5096117;28;20373;-89
2022/04/25 04:15:07;;;;;;;22.70;14.25;;;10.00;99.90;;;;;;5095601;28;20028;-89
2022/04/25 04:17:33;;;;;;;25.05;14.13;;;10.00;99.90;;;;;;5095154;28;20087;-89
2022/04/25 04:19:59;;;;;;;22.67;13.57;;;10.00;99.90;;;;;;5096327;28;20055;-90
2022/04/25 04:22:29;;;;;;;22.90;13.35;;;10.00;99.90;;;;;;5094793;28;20463;-89
2022/04/25 04:25:04;;;;;;;25.02;14.27;;;10.00;99.90;;;;;;5095407;28;20073;-89
2022/04/25 04:27:32;;;;;;;23.00;13.75;;;10.00;99.90;;;;;;5095814;28;20055;-88
2022/04/25 04:29:59;;;;;;;23.02;13.52;;;10.00;99.90;;;;;;5094375;28;20081;-87
2022/04/25 04:32:31;;;;;;;21.88;13.13;;;10.00;99.90;;;;;;5094501;28;20138;-88
2022/04/25 04:34:57;;;;;;;24.80;13.45;;;10.10;99.90;;;;;;5096166;28;20024;-89
2022/04/25 04:37:27;;;;;;;24.10;13.82;;;10.10;99.90;;;;;;5094817;28;20111;-90
2022/04/25 04:42:37;;;;;;;24.20;14.13;;;10.10;99.90;;;;;;5095068;28;20057;-88
2022/04/25 04:45:03;;;;;;;23.35;13.50;;;10.10;99.90;;;;;;5095906;28;20020;-88
2022/04/25 04:47:33;;;;;;;26.95;14.40;;;10.10;99.90;;;;;;5094112;28;20051;-89
2022/04/25 04:49:58;;;;;;;22.25;13.45;;;10.10;99.90;;;;;;5094614;28;20031;-89
2022/04/25 04:52:24;;;;;;;22.45;13.60;;;10.10;99.90;;;;;;5095031;28;20020;-86
2022/04/25 04:54:49;;;;;;;24.00;13.32;;;10.10;99.90;;;;;;5094644;28;20441;-87
2022/04/25 04:57:15;;;;;;;21.25;12.88;;;10.10;99.90;;;;;;5094015;28;20089;-88
2022/04/25 04:59:40;;;;;;;23.85;13.68;;;10.00;99.90;;;;;;5095303;28;20024;-88
2022/04/25 05:02:06;;;;;;;23.27;13.25;;;10.00;99.90;;;;;;5094800;28;20024;-92
2022/04/25 05:04:32;;;;;;;25.17;12.98;;;10.00;99.90;;;;;;5094082;28;20023;-89
2022/04/25 05:06:57;;;;;;;23.67;12.98;;;9.90;99.90;;;;;;5095317;28;20020;-91
2022/04/25 05:09:23;;;;;;;22.63;13.32;;;9.90;99.90;;;;;;5094379;28;20024;-90
2022/04/25 05:11:48;;;;;;;23.35;13.45;;;9.90;99.90;;;;;;5093955;28;20031;-90
2022/04/25 05:14:14;;;;;;;22.48;12.70;;;9.90;99.90;;;;;;5081948;28;20028;-90
2022/04/25 05:16:40;;;;;;;24.95;12.90;;;9.90;99.90;;;;;;5074562;28;20099;-88
2022/04/25 05:19:05;;;;;;;24.73;12.50;;;9.80;99.90;;;;;;5073982;28;20028;-90
2022/04/25 05:21:31;;;;;;;25.65;12.82;;;9.80;99.90;;;;;;5073687;28;20016;-89
2022/04/25 05:23:57;;;;;;;21.73;12.13;;;9.70;99.90;;;;;;5073772;28;20032;-90
2022/04/25 05:26:23;;;;;;;28.83;13.55;;;9.70;99.90;;;;;;5073795;28;20048;-89
2022/04/25 05:28:49;;;;;;;22.13;12.48;;;9.80;99.90;;;;;;5074343;28;20025;-89
2022/04/25 05:31:16;;;;;;;20.73;12.45;;;9.80;99.90;;;;;;5073653;28;20028;-89
2022/04/25 05:33:41;;;;;;;22.63;13.13;;;9.80;99.90;;;;;;5073241;28;20024;-88
2022/04/25 05:36:07;;;;;;;23.02;12.68;;;9.70;99.90;;;;;;5073641;28;20073;-87
2022/04/25 05:38:33;;;;;;;23.67;12.48;;;9.80;99.90;;;;;;5073117;28;20028;-85
2022/04/25 05:40:58;;;;;;;22.88;13.10;;;9.90;99.90;;;;;;5074444;28;20104;-86
2022/04/25 05:43:24;;;;;;;22.23;13.45;;;10.00;99.90;;;;;;5077621;28;20027;-87
2022/04/25 05:45:50;;;;;;;22.90;13.48;;;9.90;99.90;;;;;;5094160;28;20055;-87
2022/04/25 05:53:44;;;;;;;24.70;14.30;;;10.10;99.90;;;;;;5094097;28;20031;-87
2022/04/25 05:56:09;;;;;;;26.25;14.73;;;10.20;99.90;;;;;;5094451;28;20016;-88
2022/04/25 05:58:35;;;;;;;22.63;13.60;;;10.20;99.90;;;;;;5092657;28;20480;-87
2022/04/25 06:01:00;;;;;;;22.10;13.43;;;10.20;99.90;;;;;;5093094;28;20027;-88
2022/04/25 06:03:26;;;;;;;22.02;13.30;;;10.20;99.90;;;;;;5092826;28;20020;-89
2022/04/25 06:05:55;;;;;;;20.85;12.70;;;10.20;99.90;;;;;;5092404;28;20450;-89
2022/04/25 06:08:21;;;;;;;21.23;12.55;;;10.20;99.90;;;;;;5094002;28;20457;-86
2022/04/25 06:10:46;;;;;;;21.75;11.80;;;10.20;99.90;;;;;;5092834;28;20030;-86
2022/04/25 06:13:13;;;;;;;21.65;12.32;;;10.30;99.90;;;;;;5093220;28;20106;-90
2022/04/25 06:15:39;;;;;;;20.40;11.95;;;10.40;99.90;;;;;;5093854;28;20440;-90
2022/04/25 06:18:05;;;;;;;19.90;11.38;;;10.50;99.90;;;;;;5094506;28;20034;-92
2022/04/25 06:20:31;;;;;;;19.10;11.75;;;10.50;99.90;;;;;;5093077;28;20027;-90
2022/04/25 06:22:58;;;;;;;18.98;11.90;;;10.70;99.90;;;;;;5093467;28;20518;-87
2022/04/25 06:25:29;;;;;;;18.98;11.63;;;10.70;99.90;;;;;;5093156;28;20518;-88
2022/04/25 06:27:57;;;;;;;18.88;11.57;;;10.70;99.90;;;;;;5092634;28;20024;-89
2022/04/25 06:30:24;;;;;;;19.60;11.65;;;10.70;99.90;;;;;;5093972;28;20035;-90
2022/04/25 06:32:50;;;;;;;18.63;11.30;;;10.70;99.90;;;;;;5092617;28;20036;-88
2022/04/25 06:35:16;;;;;;;19.33;11.75;;;10.70;99.90;;;;;;5094124;28;20422;-89
2022/04/25 06:37:42;;;;;;;20.38;11.88;;;10.70;99.90;;;;;;5093409;28;20024;-91
2022/04/25 06:40:08;;;;;;;20.90;12.88;;;10.70;99.90;;;;;;5092375;28;20379;-92
2022/04/25 06:42:33;;;;;;;21.92;13.02;;;10.80;99.90;;;;;;5091911;28;20024;-90
2022/04/25 06:44:59;;;;;;;23.83;13.77;;;10.80;99.90;;;;;;5092349;28;20016;-87
2022/04/25 06:47:25;;;;;;;20.65;12.48;;;10.80;99.90;;;;;;5092500;28;20024;-89
2022/04/25 06:49:52;;;;;;;21.65;12.73;;;10.70;99.90;;;;;;5092060;28;20195;-92
2022/04/25 06:52:18;;;;;;;22.10;13.13;;;10.70;99.90;;;;;;5092252;28;20024;-93
2022/04/25 06:54:43;;;;;;;25.05;12.80;;;10.70;99.90;;;;;;5094604;28;20023;-91
2022/04/25 06:57:09;;;;;;;23.17;12.85;;;10.80;99.90;;;;;;5096111;28;20111;-86
2022/04/25 06:59:35;;;;;;;23.30;11.77;;;10.90;99.90;;;;;;5095556;28;20039;-86
2022/04/25 07:02:01;;;;;;;20.80;12.60;;;10.80;99.90;;;;;;5095918;28;20016;-90
2022/04/25 07:04:26;;;;;;;21.20;13.50;;;10.80;99.90;;;;;;5096061;28;20024;-84
2022/04/25 07:06:52;;;;;;;21.45;13.15;;;10.90;99.90;;;;;;5097422;28;20024;-90
2022/04/25 07:09:18;;;;;;;19.58;12.50;;;11.00;99.90;;;;;;5096464;28;20062;-84
2022/04/25 07:11:45;;;;;;;21.13;13.07;;;11.10;99.90;;;;;;5096574;28;20023;-84
2022/04/25 07:14:19;;;;;;;22.05;13.65;;;11.20;99.90;;;;;;5097447;28;20338;-87
2022/04/25 07:16:48;;;;;;;19.88;12.93;;;11.30;99.90;;;;;;5095080;28;20047;-89
2022/04/25 07:19:14;;;;;;;22.67;13.77;;;11.30;99.90;;;;;;5097352;28;20465;-91
2022/04/25 07:29:52;;;;;;;24.20;14.50;;;11.70;99.90;;;;;;5096890;28;20121;-89
2022/04/25 07:32:18;;;;;;;24.85;14.90;;;11.80;99.90;;;;;;5096029;28;20044;-88
2022/04/25 07:34:48;;;;;;;24.00;14.13;;;11.90;99.90;;;;;;5095953;28;20043;-88
2022/04/25 07:37:19;;;;;;;26.77;16.10;;;12.00;99.90;;;;;;5091688;28;20381;-91
2022/04/25 07:39:45;;;;;;;24.73;14.98;;;12.10;99.90;;;;;;5095792;28;20110;-83
2022/04/25 07:42:12;;;;;;;23.90;14.48;;;12.20;99.90;;;;;;5095040;28;20105;-81
2022/04/25 07:44:37;;;;;;;28.90;16.13;;;12.30;99.90;;;;;;5094763;28;20016;-81
2022/04/25 07:47:05;;;;;;;24.10;14.90;;;12.30;99.90;;;;;;5094856;28;20111;-81
2022/04/25 07:49:33;;;;;;;26.35;15.40;;;12.30;99.90;;;;;;5094297;28;20031;-80
2022/04/25 07:51:59;;;;;;;23.83;15.32;;;12.30;99.90;;;;;;5094863;28;20074;-83
2022/04/25 07:54:25;;;;;;;29.00;16.23;;;12.40;99.90;;;;;;5094763;28;20035;-84
2022/04/25 07:56:51;;;;;;;27.55;15.98;;;12.40;99.90;;;;;;5094267;28;20020;-82
2022/04/25 07:59:18;;;;;;;24.83;15.40;;;12.50;99.90;;;;;;5091173;28;20531;-85
2022/04/25 08:01:44;;;;;;;28.80;16.17;;;12.50;99.90;;;;;;5094398;28;20047;-85
2022/04/25 08:04:10;;;;;;;24.92;15.23;;;12.60;99.90;;;;;;5094183;28;20441;-85
2022/04/25 08:06:35;;;;;;;26.45;15.98;;;12.60;99.90;;;;;;5093416;28;20032;-83
2022/04/25 08:09:04;;;;;;;27.77;17.15;;;12.60;99.90;;;;;;5094045;28;20050;-83
2022/04/25 08:11:30;;;;;;;25.92;15.80;;;12.70;99.90;;;;;;5094242;28;20050;-83
2022/04/25 08:19:24;;;;;;;23.77;14.65;;;12.80;99.90;;;;;;5093758;28;20104;-83
2022/04/25 08:21:50;;;;;;;23.75;15.38;;;12.80;99.90;;;;;;5093945;28;20443;-86
2022/04/25 08:24:17;;;;;;;23.42;14.52;;;12.80;99.90;;;;;;5094933;28;20020;-84
2022/04/25 08:26:42;;;;;;;37.95;21.90;;;12.80;99.90;;;;;;5093896;28;20110;-84
2022/04/25 08:29:08;;;;;;;26.75;16.15;;;12.80;99.90;;;;;;5094081;28;20078;-84
2022/04/25 08:31:35;;;;;;;23.17;14.23;;;12.80;99.90;;;;;;5095258;28;20403;-86
2022/04/25 08:34:03;;;;;;;25.98;13.27;;;12.80;99.90;;;;;;5095064;28;20053;-82
2022/04/25 08:36:29;;;;;;;21.20;12.43;;;12.80;99.90;;;;;;5094167;28;20043;-80
2022/04/25 08:38:55;;;;;;;19.80;12.52;;;12.80;99.90;;;;;;5094112;28;20035;-81
2022/04/25 08:41:27;;;;;;;19.45;12.00;;;12.90;99.90;;;;;;5094677;28;20027;-82
2022/04/25 08:43:54;;;;;;;;;;;13.00;99.90;;;;;;5093619;28;20020;-83
2022/04/25 08:46:21;;;;;;;19.85;12.13;;;13.00;99.90;;;;;;5093522;28;20392;-82
2022/04/25 08:48:51;;;;;;;19.35;11.52;;;13.10;99.90;;;;;;5080883;28;20058;-82
2022/04/25 08:51:17;;;;;;;21.35;12.38;;;13.20;99.90;;;;;;5093633;28;20028;-82
2022/04/25 08:53:45;;;;;;;20.02;12.05;;;13.30;99.90;;;;;;5093479;28;20017;-82
2022/04/25 08:56:12;;;;;;;21.42;11.85;;;13.30;99.90;;;;;;5093714;28;20027;-82
2022/04/25 08:58:42;;;;;;;17.08;10.13;;;13.40;99.90;;;;;;5093877;28;20469;-82
2022/04/25 09:01:12;;;;;;;17.60;11.20;;;13.40;99.90;;;;;;5092920;28;20020;-81
2022/04/25 09:03:38;;;;;;;19.17;11.65;;;13.50;99.90;;;;;;5093827;28;20118;-83
2022/04/25 09:06:05;;;;;;;19.40;11.52;;;13.60;99.90;;;;;;5092954;28;20091;-81
2022/04/25 09:08:32;;;;;;;19.60;12.20;;;13.60;99.90;;;;;;5093344;28;20028;-82
2022/04/25 09:13:43;;;;;;;20.02;12.57;;;13.60;99.90;;;;;;5094149;28;20034;-83
2022/04/25 09:16:12;;;;;;;18.65;11.80;;;13.70;99.90;;;;;;5092761;28;20086;-82
2022/04/25 09:18:38;;;;;;;16.38;10.38;;;13.70;99.90;;;;;;5092088;28;20024;-83
2022/04/25 09:21:06;;;;;;;16.38;10.73;;;13.80;99.90;;;;;;5093532;28;20457;-82
2022/04/25 09:23:31;;;;;;;19.63;11.15;;;13.90;99.90;;;;;;5093054;28;20373;-82
2022/04/25 09:26:20;;;;;;;16.40;10.77;;;14.00;99.90;;;;;;5094124;28;20168;-81
2022/04/25 09:28:57;;;;;;;15.77;9.73;;;14.00;99.90;;;;;;5092472;28;20066;-82
2022/04/25 09:31:27;;;;;;;13.90;9.30;;;14.10;99.90;;;;;;5094191;28;20314;-80
2022/04/25 09:33:53;;;;;;;11.85;8.65;;;14.00;99.90;;;;;;5092926;28;20016;-78
2022/04/25 09:36:21;;;;;;;19.63;8.85;;;14.10;99.90;;;;;;5093165;28;20099;-79
2022/04/25 09:38:47;;;;;;;18.65;10.05;;;14.10;99.90;;;;;;5091890;28;20027;-79
2022/04/25 09:41:15;;;;;;;15.70;9.00;;;14.00;99.90;;;;;;5092250;28;20031;-79
2022/04/25 09:43:42;;;;;;;14.63;9.90;;;14.10;99.90;;;;;;5091680;28;20024;-78
2022/04/25 09:46:14;;;;;;;16.63;9.57;;;14.10;99.90;;;;;;5092039;28;20052;-81
2022/04/25 09:48:43;;;;;;;14.40;9.50;;;14.20;99.90;;;;;;5093242;28;20028;-80
2022/04/25 09:51:16;;;;;;;13.02;8.55;;;14.30;99.90;;;;;;5092797;28;20488;-81
2022/04/25 09:53:46;;;;;;;14.88;8.75;;;14.50;99.90;;;;;;5093322;28;20074;-83
2022/04/25 09:56:12;;;;;;;15.00;9.23;;;14.50;99.90;;;;;;5092967;28;20019;-85
2022/04/25 09:58:40;;;;;;;12.50;8.10;;;14.40;99.90;;;;;;5092432;28;20083;-81
2022/04/25 10:01:13;;;;;;;13.20;8.30;;;14.50;99.90;;;;;;5092856;28;20028;-81
2022/04/25 10:03:40;;;;;;;11.77;8.00;;;14.60;99.90;;;;;;5092237;28;20020;-84
2022/04/25 10:06:06;;;;;;;13.77;8.48;;;14.70;99.90;;;;;;5092298;28;20115;-84
2022/04/25 10:08:35;;;;;;;10.38;7.68;;;14.80;99.90;;;;;;5092608;28;20028;-83
2022/04/25 10:11:07;;;;;;;12.32;7.60;;;14.90;99.90;;;;;;5092017;28;20027;-78
2022/04/25 10:13:33;;;;;;;14.02;8.48;;;14.90;99.90;;;;;;5091975;28;20044;-80
2022/04/25 10:16:00;;;;;;;15.75;8.07;;;15.00;99.90;;;;;;5092088;28;20161;-87
2022/04/25 10:18:27;;;;;;;12.35;8.20;;;15.10;99.90;;;;;;5092476;28;20040;-86
2022/04/25 10:20:53;;;;;;;10.65;7.15;;;15.20;99.90;;;;;;5093137;28;20401;-89
2022/04/25 10:23:18;;;;;;;10.75;7.07;;;15.20;99.90;;;;;;5093144;28;20020;-89
2022/04/25 10:25:54;;;;;;;10.25;6.90;;;15.20;99.90;;;;;;5095286;28;20031;-86
2022/04/25 10:28:25;;;;;;;9.45;6.47;;;15.20;99.90;;;;;;5076973;28;20032;-85
2022/04/25 10:30:51;;;;;;;10.57;6.93;;;15.20;99.90;;;;;;5096406;28;20030;-85
2022/04/25 10:33:18;;;;;;;10.57;6.80;;;15.20;99.90;;;;;;5098119;28;20081;-87
2022/04/25 10:35:46;;;;;;;10.65;6.20;;;15.20;99.90;;;;;;5097742;28;20024;-83
2022/04/25 10:44:10;;;;;;;9.88;5.90;;;15.30;99.90;;;;;;5095649;28;20093;-82
2022/04/25 10:47:09;;;;;;;7.32;5.07;;;15.30;99.90;;;;;;5096075;28;20128;-83
2022/04/25 10:49:51;;;;;;;7.15;5.18;;;15.30;99.90;;;;;;5096456;28;20024;-82
2022/04/25 10:52:42;;;;;;;7.22;5.25;;;15.40;99.90;;;;;;5097218;28;20031;-82
2022/04/25 10:55:30;;;;;;;6.95;4.88;;;15.30;99.90;;;;;;5083326;28;20449;-83
2022/04/25 10:58:01;;;;;;;8.20;4.93;;;15.20;99.90;;;;;;5096715;28;20495;-83
2022/04/25 11:00:36;;;;;;;6.97;5.25;;;15.20;99.90;;;;;;5097350;28;20039;-83
2022/04/25 11:03:10;;;;;;;8.30;5.60;;;15.30;99.90;;;;;;5095883;28;20020;-81
2022/04/25 11:05:38;;;;;;;7.75;5.82;;;15.40;99.90;;;;;;5095063;28;20024;-84
2022/04/25 11:08:19;;;;;;;6.15;4.88;;;15.50;99.90;;;;;;5095350;28;20111;-87
2022/04/25 11:10:45;;;;;;;8.10;5.82;;;15.60;99.90;;;;;;5095547;28;20031;-86
2022/04/25 11:13:12;;;;;;;6.18;4.90;;;15.70;99.90;;;;;;5097149;28;20023;-86
2022/04/25 11:15:47;;;;;;;7.30;5.32;;;15.80;99.80;;;;;;5095942;28;20024;-86
2022/04/25 11:18:33;;;;;;;7.25;5.18;;;15.90;99.90;;;;;;5095770;28;20028;-87
2022/04/25 11:21:08;;;;;;;7.72;5.68;;;15.90;99.30;;;;;;5080690;28;20020;-86
2022/04/25 11:23:49;;;;;;;8.27;5.43;;;15.90;99.70;;;;;;5095755;28;20659;-87
2022/04/25 11:26:20;;;;;;;7.32;5.65;;;16.00;99.90;;;;;;5095540;28;20020;-86
2022/04/25 11:28:55;;;;;;;;;;;16.10;99.90;;;;;;5079293;28;20031;-87
2022/04/25 11:31:22;;;;;;;6.18;4.65;;;16.10;98.60;;;;;;5096021;28;19923;-86
2022/04/25 11:33:50;;;;;;;7.25;4.70;;;16.20;98.40;;;;;;5094966;28;20051;-87
2022/04/25 11:36:17;;;;;;;6.38;4.55;;;16.40;99.90;;;;;;5096219;28;20097;-87
2022/04/25 11:41:31;;;;;;;5.07;3.55;;;16.80;99.90;;;;;;5095428;28;20476;-88
2022/04/25 11:43:57;;;;;;;6.32;4.20;;;16.70;96.60;;;;;;5093046;28;20149;-87
2022/04/25 11:46:25;;;;;;;5.53;4.00;;;16.70;96.60;;;;;;5093227;28;20030;-86
2022/04/25 11:48:52;;;;;;;6.30;4.13;;;16.70;96.40;;;;;;5095442;28;20035;-86
2022/04/25 11:51:33;;;;;;;6.72;4.45;;;16.70;96.20;;;;;;5094651;28;20364;-87
2022/04/25 11:54:01;;;;;;;;;;;16.80;96.20;;;;;;5094426;28;20074;-85
2022/04/25 11:56:27;;;;;;;5.70;3.95;;;16.90;97.20;;;;;;5096151;28;19947;-86
2022/04/25 11:58:54;;;;;;;5.88;4.50;;;17.00;96.90;;;;;;5094941;28;20059;-85
2022/04/25 12:01:41;;;;;;;5.22;3.10;;;17.00;96.80;;;;;;5094849;28;20028;-86
2022/04/25 12:04:36;;;;;;;4.70;2.92;;;17.20;94.70;;;;;;5093493;28;20025;-85
2022/04/25 12:07:06;;;;;;;5.00;3.00;;;17.30;93.50;;;;;;5090613;28;20097;-86
2022/04/25 12:17:51;;;;;;;3.20;2.70;;;17.50;92.40;;;;;;5087470;28;20483;-86
2022/04/25 12:20:29;;;;;;;3.92;3.45;;;17.60;91.00;;;;;;5095466;28;20024;-87
2022/04/25 12:22:59;;;;;;;4.18;2.65;;;17.60;91.50;;;;;;5092012;28;20031;-87
2022/04/25 12:25:27;;;;;;;4.65;3.35;;;17.40;92.60;;;;;;5094567;28;20027;-86
2022/04/25 12:28:17;;;;;;;5.43;3.13;;;17.20;90.80;;;;;;5094083;28;20031;-87
2022/04/25 12:31:10;;;;;;;5.25;3.38;;;17.00;89.10;;;;;;5098456;28;20117;-82
2022/04/25 12:33:41;;;;;;;3.88;2.63;;;17.00;89.60;;;;;;5104485;28;20028;-88
2022/04/25 12:36:09;;;;;;;5.10;3.65;;;17.00;90.20;;;;;;5094241;28;20038;-85
2022/04/25 12:38:40;;;;;;;4.55;3.22;;;17.00;90.10;;;;;;5095098;28;20035;-85
2022/04/25 12:41:08;;;;;;;4.35;3.20;;;17.10;88.60;;;;;;5095259;28;20666;-84
2022/04/25 12:43:45;;;;;;;4.85;3.22;;;17.00;90.20;;;;;;5094004;28;20035;-85
2022/04/25 12:46:13;;;;;;;4.00;3.00;;;17.00;89.80;;;;;;5095324;28;20047;-85
2022/04/25 12:49:14;;;;;;;4.45;3.00;;;16.90;90.70;;;;;;5094073;28;20035;-87
2022/04/25 12:51:44;;;;;;;3.85;3.00;;;17.00;90.50;;;;;;5025093;28;20125;-88
2022/04/25 12:54:22;;;;;;;3.60;2.97;;;16.90;91.50;;;;;;5083817;28;20062;-87
2022/04/25 12:57:09;;;;;;;3.72;2.95;;;16.80;90.40;;;;;;5096218;28;20473;-85
2022/04/25 12:59:36;;;;;;;4.22;3.10;;;16.70;90.40;;;;;;5093383;28;20055;-85
2022/04/25 13:02:17;;;;;;;5.53;4.00;;;16.50;90.60;;;;;;5093131;28;20028;-87
2022/04/25 13:05:05;;;;;;;6.15;4.10;;;16.20;91.60;;;;;;5093718;28;20028;-86
2022/04/25 13:07:37;;;;;;;5.85;3.95;;;16.00;92.60;;;;;;5094478;28;20050;-88
2022/04/25 13:10:09;;;;;;;5.63;4.20;;;15.80;93.40;;;;;;5093592;28;20025;-86
2022/04/25 13:12:41;;;;;;;5.80;4.35;;;15.60;94.60;;;;;;5094193;28;20485;-87
2022/04/25 13:15:12;;;;;;;7.72;4.80;;;15.50;96.20;;;;;;5093734;28;20692;-87
2022/04/25 13:17:39;;;;;;;5.90;3.97;;;15.20;98.30;;;;;;5093335;28;20024;-87
2022/04/25 13:20:13;;;;;;;5.88;4.22;;;15.00;99.90;;;;;;5093420;28;20024;-86
2022/04/25 13:22:40;;;;;;;6.20;4.28;;;14.70;99.90;;;;;;5093895;28;20031;-85
2022/04/25 13:25:07;;;;;;;5.35;3.63;;;14.50;99.90;;;;;;5093527;28;20012;-91
2022/04/25 13:27:34;;;;;;;6.35;3.70;;;14.20;99.90;;;;;;5093774;28;20024;-85